Buoy 46770

sailwx.info

Track history (hours):
 
Tides and Currents Weather Stations Pressure Air Temp Water Temp Dewpoint Dewpoint Depression Visibility Wind Speed Wind Dir Waves Ship Positions

Drifting buoy 46770

Last reported at 2014-Oct-02 01:30 UTC. Time now 2014-Oct-02 06:27 UTC.
Position N 51°32' E 167°39'.

Barometer 1000.4 mb
Water temperature 10.4 ° C

Date/timePositionNaut miles runAvg speedWind from/ knotsBaromVisibWave heightAir tempDewpointWater temp
2014-Oct-02 01:30N 51°32' E 167°39'0 0.0 1000.4 10.4
2014-Oct-01 20:30N 51°32' E 167°39'2 0.6 998.7 10.4
2014-Oct-01 17:30N 51°32' E 167°36'0 0.0 997.7 10.4
2014-Oct-01 16:30N 51°32' E 167°36'4 1.4 997.3 10.4
2014-Oct-01 13:30N 51°29' E 167°33'1 0.2 996.7 10.4
2014-Oct-01 08:30N 51°28' E 167°32'5 0.7 997.3 10.4
2014-Oct-01 01:30N 51°24' E 167°27'1 0.6 1002.6 10.4
2014-Sep-30 23:30N 51°23' E 167°28'3 0.6 1004.6 10.5
2014-Sep-30 18:30N 51°20' E 167°29'0 0.2 1009.5 10.6
2014-Sep-30 16:30N 51°20' E 167°28'1 1.2 1010.6 10.6
2014-Sep-30 15:30N 51°19' E 167°27'3 1.5 1011.6 10.6
2014-Sep-30 13:30N 51°16' E 167°26'1 0.2 1012.9 10.7
2014-Sep-30 09:30N 51°15' E 167°26'1 0.8 1016.4 10.7
2014-Sep-30 08:30N 51°14' E 167°26'2 0.4 1016.8 10.7
2014-Sep-30 04:30N 51°13' E 167°26'0 0.2 1017.4 10.8
2014-Sep-30 02:30N 51°13' E 167°26'0 0.1 1018.0 10.8
2014-Sep-30 01:30N 51°13' E 167°26'0 0.5 1018.6 10.8
2014-Sep-30 00:30N 51°12' E 167°26'2 0.8 1019.6 10.7
2014-Sep-29 22:30N 51°11' E 167°24'1 0.4 1020.0 10.8
2014-Sep-29 19:30N 51°09' E 167°24'2 0.5 1019.5 10.7
2014-Sep-29 16:30N 51°08' E 167°24'0 0.3 1019.3 10.7
2014-Sep-29 15:30N 51°08' E 167°24'1 0.6 1019.5 10.7
2014-Sep-29 14:30N 51°07' E 167°24'2 0.5 1020.2 10.7
2014-Sep-29 10:30N 51°05' E 167°25'1 0.3 1020.7 11.2
2014-Sep-29 08:30N 51°05' E 167°24'0 0.5 1020.6 11.2
2014-Sep-29 07:30N 51°05' E 167°23'4 1.4 1020.5 11.3
2014-Sep-29 04:30N 51°01' E 167°22'1 0.3 1021.0 11.9
2014-Sep-29 02:30N 51°00' E 167°23'2 0.5 1021.0 11.2
2014-Sep-28 22:30N 50°59' E 167°25'1 0.3 1021.6 10.6
2014-Sep-28 19:30N 50°58' E 167°24'1 0.4 1021.2 10.6
2014-Sep-28 16:30N 50°57' E 167°23'3 1.4 1020.6 10.6
2014-Sep-28 14:30N 50°54' E 167°24'1 0.6 1019.9 10.6
2014-Sep-28 12:30N 50°53' E 167°24'1 0.3 1019.5 10.6
2014-Sep-28 08:30N 50°52' E 167°25'0 0.3 1017.5 10.6
2014-Sep-28 07:30N 50°52' E 167°26'1 0.5 1016.4 10.6
2014-Sep-28 05:30N 50°51' E 167°26'0 0.0 1014.0 10.6
2014-Sep-28 04:30N 50°51' E 167°26'0 0.0 1013.3 10.6
2014-Sep-28 03:30N 50°51' E 167°26'3 0.8 1012.3 10.6
2014-Sep-27 23:30N 50°48' E 167°26'6 1.2 1008.6 10.6
2014-Sep-27 18:30N 50°44' E 167°33'1 0.6 1001.7 10.7
2014-Sep-27 16:30N 50°44' E 167°34'0 0.0 998.6 10.7
2014-Sep-27 14:30N 50°44' E 167°34'3 0.7 996.5 10.7
2014-Sep-27 09:30N 50°41' E 167°32'5 0.7 993.7 10.7
2014-Sep-27 02:30N 50°36' E 167°36'5 0.6 996.5 10.8
2014-Sep-26 18:30N 50°31' E 167°34'1 0.7 1009.0 10.8
2014-Sep-26 16:30N 50°30' E 167°35'3 0.6 1011.0 10.8
2014-Sep-26 10:30N 50°27' E 167°38'0 0.2 1016.6 10.9
2014-Sep-26 08:30N 50°27' E 167°38'1 0.3 1017.5 10.9
2014-Sep-26 04:30N 50°26' E 167°37'1 0.8 1018.0 11.0
2014-Sep-26 03:30N 50°25' E 167°38'1 1.4 1018.8 11.0
2014-Sep-26 02:30N 50°24' E 167°38'3 1.1 1019.1 11.0
2014-Sep-25 23:30N 50°21' E 167°41'0 0.0 1020.1 10.9
2014-Sep-25 19:30N 50°21' E 167°41'0 0.3 1019.6 10.8
2014-Sep-25 18:30N 50°21' E 167°42'0 0.3 1019.6 10.9
2014-Sep-25 17:30N 50°21' E 167°42'1 0.5 1019.6 11.0
2014-Sep-25 15:30N 50°21' E 167°44'3 0.5 1019.4 11.2
2014-Sep-25 08:30N 50°18' E 167°42'2 1.8 1018.1 11.2
2014-Sep-25 07:30N 50°16' E 167°44'1 1.4 1017.9 11.2
2014-Sep-25 06:30N 50°16' E 167°46'1 0.4 1017.4 11.3
2014-Sep-25 03:30N 50°17' E 167°48'1 0.5 1016.4 11.4
2014-Sep-25 02:30N 50°17' E 167°48'0 0.1 1016.3 11.5
2014-Sep-25 00:30N 50°17' E 167°48'0 0.0 1016.1 11.3
2014-Sep-24 23:30N 50°17' E 167°48'1 1.1 1016.0 11.2
2014-Sep-24 22:30N 50°16' E 167°47'4 0.6 1015.8 10.9
2014-Sep-24 16:30N 50°13' E 167°50'1 0.9 1013.6 10.8
2014-Sep-24 15:30N 50°13' E 167°51'1 0.9 1013.3 10.8
2014-Sep-24 14:30N 50°12' E 167°53'1 0.4 1013.3 10.8
2014-Sep-24 10:30N 50°13' E 167°55'2 0.3 1013.0 10.8
2014-Sep-24 04:30N 50°11' E 167°55'0 0.5 1011.0 10.8
2014-Sep-24 03:30N 50°11' E 167°55'2 1.2 1010.6 10.8
2014-Sep-24 01:30N 50°09' E 167°58'0 0.0 1010.6 10.8
2014-Sep-24 00:30N 50°09' E 167°58'0 0.0 1010.6 10.8
2014-Sep-23 23:30N 50°09' E 167°58'3 0.5 1010.4 10.8
2014-Sep-23 17:30N 50°10' E 168°02'0 0.0 1007.1 10.8
2014-Sep-23 16:30N 50°10' E 168°02'2 0.4 1006.6 10.8
2014-Sep-23 09:30N 50°08' E 168°03'1 0.6 1005.0 10.8
2014-Sep-23 07:30N 50°08' E 168°05'2 1.1 1003.6 10.8
2014-Sep-23 05:30N 50°08' E 168°09'1 0.4 1002.1 10.9
2014-Sep-23 02:30N 50°09' E 168°10'1 0.7 1000.7 10.9
2014-Sep-23 01:30N 50°10' E 168°09'4 0.5 1000.7 10.8
2014-Sep-22 17:30N 50°06' E 168°11'0 0.0 995.9 10.8
2014-Sep-22 16:30N 50°06' E 168°11'5 0.6 996.5 10.8
2014-Sep-22 08:30N 50°08' E 168°17'3 0.8 997.4 10.8
2014-Sep-22 04:30N 50°06' E 168°14'2 1.6 997.2 10.8
2014-Sep-22 03:30N 50°05' E 168°15'0 0.0 997.6 10.8
2014-Sep-22 02:30N 50°05' E 168°15'2 2.3 998.1 10.8
2014-Sep-22 01:30N 50°05' E 168°18'   998.7 10.8
Track history (hours):
 
Tides and Currents Weather Stations Pressure Air Temp Water Temp Dewpoint Dewpoint Depression Visibility Wind Speed Wind Dir Waves Ship Positions

Drifting buoy 46770

Last reported at 2014-Oct-02 01:30 UTC. Time now 2014-Oct-02 06:27 UTC.
Position N 51°32' E 167°39'.

Barometer 1000.4 mb
Water temperature 10.4 ° C

Date/timePositionNaut miles runAvg speedWind from/ knotsBaromVisibWave heightAir tempDewpointWater temp
2014-Oct-02 01:30N 51°32' E 167°39'0 0.0 1000.4 10.4
2014-Oct-01 20:30N 51°32' E 167°39'2 0.6 998.7 10.4
2014-Oct-01 17:30N 51°32' E 167°36'0 0.0 997.7 10.4
2014-Oct-01 16:30N 51°32' E 167°36'4 1.4 997.3 10.4
2014-Oct-01 13:30N 51°29' E 167°33'1 0.2 996.7 10.4
2014-Oct-01 08:30N 51°28' E 167°32'5 0.7 997.3 10.4
2014-Oct-01 01:30N 51°24' E 167°27'1 0.6 1002.6 10.4
2014-Sep-30 23:30N 51°23' E 167°28'3 0.6 1004.6 10.5
2014-Sep-30 18:30N 51°20' E 167°29'0 0.2 1009.5 10.6
2014-Sep-30 16:30N 51°20' E 167°28'1 1.2 1010.6 10.6
2014-Sep-30 15:30N 51°19' E 167°27'3 1.5 1011.6 10.6
2014-Sep-30 13:30N 51°16' E 167°26'1 0.2 1012.9 10.7
2014-Sep-30 09:30N 51°15' E 167°26'1 0.8 1016.4 10.7
2014-Sep-30 08:30N 51°14' E 167°26'2 0.4 1016.8 10.7
2014-Sep-30 04:30N 51°13' E 167°26'0 0.2 1017.4 10.8
2014-Sep-30 02:30N 51°13' E 167°26'0 0.1 1018.0 10.8
2014-Sep-30 01:30N 51°13' E 167°26'0 0.5 1018.6 10.8
2014-Sep-30 00:30N 51°12' E 167°26'2 0.8 1019.6 10.7
2014-Sep-29 22:30N 51°11' E 167°24'1 0.4 1020.0 10.8
2014-Sep-29 19:30N 51°09' E 167°24'2 0.5 1019.5 10.7
2014-Sep-29 16:30N 51°08' E 167°24'0 0.3 1019.3 10.7
2014-Sep-29 15:30N 51°08' E 167°24'1 0.6 1019.5 10.7
2014-Sep-29 14:30N 51°07' E 167°24'2 0.5 1020.2 10.7
2014-Sep-29 10:30N 51°05' E 167°25'1 0.3 1020.7 11.2
2014-Sep-29 08:30N 51°05' E 167°24'0 0.5 1020.6 11.2
2014-Sep-29 07:30N 51°05' E 167°23'4 1.4 1020.5 11.3
2014-Sep-29 04:30N 51°01' E 167°22'1 0.3 1021.0 11.9
2014-Sep-29 02:30N 51°00' E 167°23'2 0.5 1021.0 11.2
2014-Sep-28 22:30N 50°59' E 167°25'1 0.3 1021.6 10.6
2014-Sep-28 19:30N 50°58' E 167°24'1 0.4 1021.2 10.6
2014-Sep-28 16:30N 50°57' E 167°23'3 1.4 1020.6 10.6
2014-Sep-28 14:30N 50°54' E 167°24'1 0.6 1019.9 10.6
2014-Sep-28 12:30N 50°53' E 167°24'1 0.3 1019.5 10.6
2014-Sep-28 08:30N 50°52' E 167°25'0 0.3 1017.5 10.6
2014-Sep-28 07:30N 50°52' E 167°26'1 0.5 1016.4 10.6
2014-Sep-28 05:30N 50°51' E 167°26'0 0.0 1014.0 10.6
2014-Sep-28 04:30N 50°51' E 167°26'0 0.0 1013.3 10.6
2014-Sep-28 03:30N 50°51' E 167°26'3 0.8 1012.3 10.6
2014-Sep-27 23:30N 50°48' E 167°26'6 1.2 1008.6 10.6
2014-Sep-27 18:30N 50°44' E 167°33'1 0.6 1001.7 10.7
2014-Sep-27 16:30N 50°44' E 167°34'0 0.0 998.6 10.7
2014-Sep-27 14:30N 50°44' E 167°34'3 0.7 996.5 10.7
2014-Sep-27 09:30N 50°41' E 167°32'5 0.7 993.7 10.7
2014-Sep-27 02:30N 50°36' E 167°36'5 0.6 996.5 10.8
2014-Sep-26 18:30N 50°31' E 167°34'1 0.7 1009.0 10.8
2014-Sep-26 16:30N 50°30' E 167°35'3 0.6 1011.0 10.8
2014-Sep-26 10:30N 50°27' E 167°38'0 0.2 1016.6 10.9
2014-Sep-26 08:30N 50°27' E 167°38'1 0.3 1017.5 10.9
2014-Sep-26 04:30N 50°26' E 167°37'1 0.8 1018.0 11.0
2014-Sep-26 03:30N 50°25' E 167°38'1 1.4 1018.8 11.0
2014-Sep-26 02:30N 50°24' E 167°38'3 1.1 1019.1 11.0
2014-Sep-25 23:30N 50°21' E 167°41'0 0.0 1020.1 10.9
2014-Sep-25 19:30N 50°21' E 167°41'0 0.3 1019.6 10.8
2014-Sep-25 18:30N 50°21' E 167°42'0 0.3 1019.6 10.9
2014-Sep-25 17:30N 50°21' E 167°42'1 0.5 1019.6 11.0
2014-Sep-25 15:30N 50°21' E 167°44'3 0.5 1019.4 11.2
2014-Sep-25 08:30N 50°18' E 167°42'2 1.8 1018.1 11.2
2014-Sep-25 07:30N 50°16' E 167°44'1 1.4 1017.9 11.2
2014-Sep-25 06:30N 50°16' E 167°46'1 0.4 1017.4 11.3
2014-Sep-25 03:30N 50°17' E 167°48'1 0.5 1016.4 11.4
2014-Sep-25 02:30N 50°17' E 167°48'0 0.1 1016.3 11.5
2014-Sep-25 00:30N 50°17' E 167°48'0 0.0 1016.1 11.3
2014-Sep-24 23:30N 50°17' E 167°48'1 1.1 1016.0 11.2
2014-Sep-24 22:30N 50°16' E 167°47'4 0.6 1015.8 10.9
2014-Sep-24 16:30N 50°13' E 167°50'1 0.9 1013.6 10.8
2014-Sep-24 15:30N 50°13' E 167°51'1 0.9 1013.3 10.8
2014-Sep-24 14:30N 50°12' E 167°53'1 0.4 1013.3 10.8
2014-Sep-24 10:30N 50°13' E 167°55'2 0.3 1013.0 10.8
2014-Sep-24 04:30N 50°11' E 167°55'0 0.5 1011.0 10.8
2014-Sep-24 03:30N 50°11' E 167°55'2 1.2 1010.6 10.8
2014-Sep-24 01:30N 50°09' E 167°58'0 0.0 1010.6 10.8
2014-Sep-24 00:30N 50°09' E 167°58'0 0.0 1010.6 10.8
2014-Sep-23 23:30N 50°09' E 167°58'3 0.5 1010.4 10.8
2014-Sep-23 17:30N 50°10' E 168°02'0 0.0 1007.1 10.8
2014-Sep-23 16:30N 50°10' E 168°02'2 0.4 1006.6 10.8
2014-Sep-23 09:30N 50°08' E 168°03'1 0.6 1005.0 10.8
2014-Sep-23 07:30N 50°08' E 168°05'2 1.1 1003.6 10.8
2014-Sep-23 05:30N 50°08' E 168°09'1 0.4 1002.1 10.9
2014-Sep-23 02:30N 50°09' E 168°10'1 0.7 1000.7 10.9
2014-Sep-23 01:30N 50°10' E 168°09'4 0.5 1000.7 10.8
2014-Sep-22 17:30N 50°06' E 168°11'0 0.0 995.9 10.8
2014-Sep-22 16:30N 50°06' E 168°11'5 0.6 996.5 10.8
2014-Sep-22 08:30N 50°08' E 168°17'3 0.8 997.4 10.8
2014-Sep-22 04:30N 50°06' E 168°14'2 1.6 997.2 10.8
2014-Sep-22 03:30N 50°05' E 168°15'0 0.0 997.6 10.8
2014-Sep-22 02:30N 50°05' E 168°15'2 2.3 998.1 10.8
2014-Sep-22 01:30N 50°05' E 168°18'   998.7 10.8

Dump ship's entire track history